sensor_id;sensor_type;location;lat;lon;timestamp;P1;durP1;ratioP1;P2;durP2;ratioP2
39822;SDS011;25499;53.958;10.970;2022-10-15T06:03:50;37.13;;;21.25;;
39822;SDS011;25499;53.958;10.970;2022-10-15T06:06:17;37.05;;;23.30;;
39822;SDS011;25499;53.958;10.970;2022-10-15T06:08:44;39.00;;;22.13;;
39822;SDS011;25499;53.958;10.970;2022-10-15T06:11:10;35.60;;;21.48;;
39822;SDS011;25499;53.958;10.970;2022-10-15T06:13:39;34.55;;;21.52;;
39822;SDS011;25499;53.958;10.970;2022-10-15T06:16:06;26.70;;;18.48;;
39822;SDS011;25499;53.958;10.970;2022-10-15T06:18:32;23.83;;;17.13;;
39822;SDS011;25499;53.958;10.970;2022-10-15T06:20:57;26.88;;;17.70;;
39822;SDS011;25499;53.958;10.970;2022-10-15T06:23:22;22.83;;;16.65;;
39822;SDS011;25499;53.958;10.970;2022-10-15T06:25:51;22.23;;;15.48;;
39822;SDS011;25499;53.958;10.970;2022-10-15T06:28:16;28.50;;;18.60;;
39822;SDS011;25499;53.958;10.970;2022-10-15T06:30:41;25.33;;;16.45;;
39822;SDS011;25499;53.958;10.970;2022-10-15T06:33:07;25.05;;;16.27;;
39822;SDS011;25499;53.958;10.970;2022-10-15T06:35:33;32.88;;;20.65;;
39822;SDS011;25499;53.958;10.970;2022-10-15T06:38:03;28.88;;;19.10;;
39822;SDS011;25499;53.958;10.970;2022-10-15T06:40:29;28.63;;;18.95;;
39822;SDS011;25499;53.958;10.970;2022-10-15T06:43:01;31.45;;;19.27;;
39822;SDS011;25499;53.958;10.970;2022-10-15T06:45:32;30.30;;;19.75;;
39822;SDS011;25499;53.958;10.970;2022-10-15T06:47:58;29.38;;;19.38;;
39822;SDS011;25499;53.958;10.970;2022-10-15T06:50:23;29.05;;;18.98;;
39822;SDS011;25499;53.958;10.970;2022-10-15T06:52:48;31.48;;;18.98;;
39822;SDS011;25499;53.958;10.970;2022-10-15T06:55:14;28.98;;;18.05;;
39822;SDS011;25499;53.958;10.970;2022-10-15T06:57:39;30.98;;;19.45;;
39822;SDS011;25499;53.958;10.970;2022-10-15T07:00:04;27.95;;;18.75;;
39822;SDS011;25499;53.958;10.970;2022-10-15T07:02:30;30.55;;;17.95;;
39822;SDS011;25499;53.958;10.970;2022-10-15T07:04:55;27.67;;;17.67;;
39822;SDS011;25499;53.958;10.970;2022-10-15T07:07:21;23.58;;;17.95;;
39822;SDS011;25499;53.958;10.970;2022-10-15T07:09:46;25.35;;;16.77;;
39822;SDS011;25499;53.958;10.970;2022-10-15T07:12:12;20.88;;;13.95;;
39822;SDS011;25499;53.958;10.970;2022-10-15T07:14:37;20.73;;;14.05;;
39822;SDS011;25499;53.958;10.970;2022-10-15T07:17:03;17.27;;;13.00;;
39822;SDS011;25499;53.958;10.970;2022-10-15T07:19:28;18.48;;;12.38;;
39822;SDS011;25499;53.958;10.970;2022-10-15T07:21:53;18.27;;;11.70;;
39822;SDS011;25499;53.958;10.970;2022-10-15T07:24:19;17.15;;;11.65;;
39822;SDS011;25499;53.958;10.970;2022-10-15T07:26:46;16.30;;;11.13;;
39822;SDS011;25499;53.958;10.970;2022-10-15T07:29:11;16.80;;;10.23;;
39822;SDS011;25499;53.958;10.970;2022-10-15T07:31:37;17.40;;;10.00;;
39822;SDS011;25499;53.958;10.970;2022-10-15T07:34:02;14.00;;;9.30;;
39822;SDS011;25499;53.958;10.970;2022-10-15T07:36:27;13.32;;;8.50;;
39822;SDS011;25499;53.958;10.970;2022-10-15T07:38:52;11.38;;;8.27;;
39822;SDS011;25499;53.958;10.970;2022-10-15T07:41:18;14.02;;;8.23;;
39822;SDS011;25499;53.958;10.970;2022-10-15T07:43:43;13.75;;;8.40;;
39822;SDS011;25499;53.958;10.970;2022-10-15T07:46:09;11.65;;;8.93;;
39822;SDS011;25499;53.958;10.970;2022-10-15T07:48:34;14.13;;;8.27;;
39822;SDS011;25499;53.958;10.970;2022-10-15T07:51:02;9.85;;;7.70;;
39822;SDS011;25499;53.958;10.970;2022-10-15T07:53:30;11.00;;;7.85;;
39822;SDS011;25499;53.958;10.970;2022-10-15T07:55:59;10.50;;;7.38;;
39822;SDS011;25499;53.958;10.970;2022-10-15T07:58:25;11.43;;;7.60;;
39822;SDS011;25499;53.958;10.970;2022-10-15T08:00:52;12.07;;;7.45;;
39822;SDS011;25499;53.958;10.970;2022-10-15T08:03:17;9.45;;;7.05;;
39822;SDS011;25499;53.958;10.970;2022-10-15T08:05:43;9.52;;;7.47;;
39822;SDS011;25499;53.958;10.970;2022-10-15T08:08:08;10.35;;;7.38;;
39822;SDS011;25499;53.958;10.970;2022-10-15T08:10:34;13.98;;;8.85;;
39822;SDS011;25499;53.958;10.970;2022-10-15T08:13:00;11.15;;;7.15;;
39822;SDS011;25499;53.958;10.970;2022-10-15T08:15:25;10.13;;;7.53;;
39822;SDS011;25499;53.958;10.970;2022-10-15T08:17:51;11.70;;;8.05;;
39822;SDS011;25499;53.958;10.970;2022-10-15T08:20:16;12.70;;;8.23;;
39822;SDS011;25499;53.958;10.970;2022-10-15T08:22:41;13.35;;;8.25;;
39822;SDS011;25499;53.958;10.970;2022-10-15T08:25:07;13.25;;;8.23;;
39822;SDS011;25499;53.958;10.970;2022-10-15T08:27:33;11.80;;;8.40;;
39822;SDS011;25499;53.958;10.970;2022-10-15T08:29:58;12.98;;;8.50;;
39822;SDS011;25499;53.958;10.970;2022-10-15T08:32:23;11.65;;;7.75;;
39822;SDS011;25499;53.958;10.970;2022-10-15T08:34:48;13.80;;;7.97;;
39822;SDS011;25499;53.958;10.970;2022-10-15T08:37:14;12.32;;;8.23;;
39822;SDS011;25499;53.958;10.970;2022-10-15T08:39:39;12.50;;;7.63;;
39822;SDS011;25499;53.958;10.970;2022-10-15T08:42:05;12.02;;;7.40;;
39822;SDS011;25499;53.958;10.970;2022-10-15T08:44:52;12.35;;;8.48;;
39822;SDS011;25499;53.958;10.970;2022-10-15T08:47:27;14.18;;;8.98;;
39822;SDS011;25499;53.958;10.970;2022-10-15T08:49:55;11.45;;;8.88;;
39822;SDS011;25499;53.958;10.970;2022-10-15T08:55:04;14.55;;;9.23;;
39822;SDS011;25499;53.958;10.970;2022-10-15T09:00:23;16.38;;;10.80;;
39822;SDS011;25499;53.958;10.970;2022-10-15T09:03:03;16.75;;;10.23;;
39822;SDS011;25499;53.958;10.970;2022-10-15T09:05:46;14.00;;;9.90;;
39822;SDS011;25499;53.958;10.970;2022-10-15T09:11:18;15.13;;;9.15;;
39822;SDS011;25499;53.958;10.970;2022-10-15T09:13:52;12.45;;;9.15;;
39822;SDS011;25499;53.958;10.970;2022-10-15T09:16:21;13.27;;;9.05;;
39822;SDS011;25499;53.958;10.970;2022-10-15T09:18:51;14.45;;;10.52;;
39822;SDS011;25499;53.958;10.970;2022-10-15T09:21:19;16.15;;;11.13;;
39822;SDS011;25499;53.958;10.970;2022-10-15T09:23:47;19.08;;;11.38;;
39822;SDS011;25499;53.958;10.970;2022-10-15T09:26:30;16.50;;;11.75;;
39822;SDS011;25499;53.958;10.970;2022-10-15T09:29:28;22.15;;;12.27;;
39822;SDS011;25499;53.958;10.970;2022-10-15T09:34:53;17.40;;;11.32;;
39822;SDS011;25499;53.958;10.970;2022-10-15T09:40:26;16.35;;;10.32;;
39822;SDS011;25499;53.958;10.970;2022-10-15T09:43:01;14.73;;;10.65;;
39822;SDS011;25499;53.958;10.970;2022-10-15T09:45:28;14.20;;;10.40;;
39822;SDS011;25499;53.958;10.970;2022-10-15T09:47:57;15.00;;;10.30;;
39822;SDS011;25499;53.958;10.970;2022-10-15T09:50:27;14.93;;;10.15;;
39822;SDS011;25499;53.958;10.970;2022-10-15T09:53:16;13.60;;;9.73;;
39822;SDS011;25499;53.958;10.970;2022-10-15T09:55:54;12.32;;;9.48;;
39822;SDS011;25499;53.958;10.970;2022-10-15T09:58:39;12.82;;;8.85;;
39822;SDS011;25499;53.958;10.970;2022-10-15T10:01:18;10.27;;;7.85;;
39822;SDS011;25499;53.958;10.970;2022-10-15T10:03:51;13.57;;;9.60;;
39822;SDS011;25499;53.958;10.970;2022-10-15T10:06:18;12.45;;;9.95;;
39822;SDS011;25499;53.958;10.970;2022-10-15T10:08:57;11.88;;;9.10;;
39822;SDS011;25499;53.958;10.970;2022-10-15T10:11:25;12.93;;;9.57;;
39822;SDS011;25499;53.958;10.970;2022-10-15T10:13:55;14.20;;;9.65;;
39822;SDS011;25499;53.958;10.970;2022-10-15T10:16:23;13.05;;;8.95;;
39822;SDS011;25499;53.958;10.970;2022-10-15T10:19:03;13.55;;;9.82;;
39822;SDS011;25499;53.958;10.970;2022-10-15T10:21:36;13.75;;;9.15;;
39822;SDS011;25499;53.958;10.970;2022-10-15T10:26:59;11.48;;;7.50;;
39822;SDS011;25499;53.958;10.970;2022-10-15T10:29:26;11.63;;;7.68;;
39822;SDS011;25499;53.958;10.970;2022-10-15T10:31:54;9.73;;;7.85;;
39822;SDS011;25499;53.958;10.970;2022-10-15T10:34:26;10.63;;;7.20;;
39822;SDS011;25499;53.958;10.970;2022-10-15T10:36:53;10.57;;;7.07;;
39822;SDS011;25499;53.958;10.970;2022-10-15T10:39:26;8.18;;;6.10;;
39822;SDS011;25499;53.958;10.970;2022-10-15T10:41:55;8.90;;;6.82;;
39822;SDS011;25499;53.958;10.970;2022-10-15T10:49:48;8.88;;;6.32;;
39822;SDS011;25499;53.958;10.970;2022-10-15T10:52:28;9.07;;;6.80;;
39822;SDS011;25499;53.958;10.970;2022-10-15T10:57:36;10.38;;;6.35;;
39822;SDS011;25499;53.958;10.970;2022-10-15T11:00:12;7.18;;;5.70;;
39822;SDS011;25499;53.958;10.970;2022-10-15T11:02:44;9.50;;;6.13;;
39822;SDS011;25499;53.958;10.970;2022-10-15T11:05:12;9.20;;;5.90;;
39822;SDS011;25499;53.958;10.970;2022-10-15T11:10:21;6.90;;;5.95;;
39822;SDS011;25499;53.958;10.970;2022-10-15T11:15:35;8.73;;;6.35;;
39822;SDS011;25499;53.958;10.970;2022-10-15T11:21:11;8.40;;;5.28;;
39822;SDS011;25499;53.958;10.970;2022-10-15T11:26:31;7.60;;;5.28;;
39822;SDS011;25499;53.958;10.970;2022-10-15T11:32:00;6.30;;;5.07;;
39822;SDS011;25499;53.958;10.970;2022-10-15T11:51:30;5.95;;;4.85;;
39822;SDS011;25499;53.958;10.970;2022-10-15T11:54:08;7.03;;;4.80;;
39822;SDS011;25499;53.958;10.970;2022-10-15T11:56:47;6.45;;;4.85;;
39822;SDS011;25499;53.958;10.970;2022-10-15T11:59:18;5.95;;;3.97;;
39822;SDS011;25499;53.958;10.970;2022-10-15T12:01:49;5.07;;;4.20;;
39822;SDS011;25499;53.958;10.970;2022-10-15T12:06:55;4.72;;;3.70;;
39822;SDS011;25499;53.958;10.970;2022-10-15T12:09:27;5.32;;;4.18;;
39822;SDS011;25499;53.958;10.970;2022-10-15T12:19:52;7.60;;;3.83;;
39822;SDS011;25499;53.958;10.970;2022-10-15T12:24:57;5.70;;;4.40;;
39822;SDS011;25499;53.958;10.970;2022-10-15T12:27:27;8.27;;;4.32;;
39822;SDS011;25499;53.958;10.970;2022-10-15T12:32:29;7.78;;;4.15;;
39822;SDS011;25499;53.958;10.970;2022-10-15T12:35:03;5.43;;;3.97;;
39822;SDS011;25499;53.958;10.970;2022-10-15T12:37:31;6.38;;;4.30;;
39822;SDS011;25499;53.958;10.970;2022-10-15T12:40:22;4.70;;;3.70;;
39822;SDS011;25499;53.958;10.970;2022-10-15T12:43:04;5.40;;;3.50;;
39822;SDS011;25499;53.958;10.970;2022-10-15T12:45:39;4.88;;;3.90;;
39822;SDS011;25499;53.958;10.970;2022-10-15T12:50:41;4.72;;;3.75;;
39822;SDS011;25499;53.958;10.970;2022-10-15T12:58:38;5.97;;;3.87;;
39822;SDS011;25499;53.958;10.970;2022-10-15T13:11:33;4.72;;;3.90;;
39822;SDS011;25499;53.958;10.970;2022-10-15T13:16:47;4.72;;;3.00;;
39822;SDS011;25499;53.958;10.970;2022-10-15T13:19:21;4.65;;;3.58;;
39822;SDS011;25499;53.958;10.970;2022-10-15T13:22:05;4.32;;;3.55;;
39822;SDS011;25499;53.958;10.970;2022-10-15T13:24:43;3.78;;;3.20;;
39822;SDS011;25499;53.958;10.970;2022-10-15T13:32:23;3.10;;;1.83;;
39822;SDS011;25499;53.958;10.970;2022-10-15T13:34:51;2.88;;;1.70;;
39822;SDS011;25499;53.958;10.970;2022-10-15T13:37:18;2.25;;;1.80;;
39822;SDS011;25499;53.958;10.970;2022-10-15T13:39:48;3.95;;;2.30;;
39822;SDS011;25499;53.958;10.970;2022-10-15T13:42:20;2.78;;;2.20;;
39822;SDS011;25499;53.958;10.970;2022-10-15T13:44:57;4.25;;;2.15;;
39822;SDS011;25499;53.958;10.970;2022-10-15T13:47:35;4.10;;;2.50;;
39822;SDS011;25499;53.958;10.970;2022-10-15T13:52:43;4.28;;;2.70;;
39822;SDS011;25499;53.958;10.970;2022-10-15T13:55:16;2.90;;;2.45;;
39822;SDS011;25499;53.958;10.970;2022-10-15T13:57:46;3.95;;;2.50;;
39822;SDS011;25499;53.958;10.970;2022-10-15T14:00:20;3.03;;;2.25;;
39822;SDS011;25499;53.958;10.970;2022-10-15T14:03:05;3.30;;;2.17;;
39822;SDS011;25499;53.958;10.970;2022-10-15T14:05:37;4.55;;;2.25;;
39822;SDS011;25499;53.958;10.970;2022-10-15T14:08:02;3.72;;;2.30;;
39822;SDS011;25499;53.958;10.970;2022-10-15T14:10:27;3.33;;;2.17;;
39822;SDS011;25499;53.958;10.970;2022-10-15T14:12:53;4.85;;;2.67;;
39822;SDS011;25499;53.958;10.970;2022-10-15T14:18:12;4.78;;;2.88;;
39822;SDS011;25499;53.958;10.970;2022-10-15T14:20:42;5.15;;;2.85;;
39822;SDS011;25499;53.958;10.970;2022-10-15T14:23:19;3.47;;;2.65;;
39822;SDS011;25499;53.958;10.970;2022-10-15T14:25:51;5.28;;;3.10;;
39822;SDS011;25499;53.958;10.970;2022-10-15T14:28:19;4.70;;;3.00;;
39822;SDS011;25499;53.958;10.970;2022-10-15T14:30:46;5.22;;;2.85;;
39822;SDS011;25499;53.958;10.970;2022-10-15T14:38:38;4.32;;;2.47;;
39822;SDS011;25499;53.958;10.970;2022-10-15T14:41:22;4.78;;;2.80;;
39822;SDS011;25499;53.958;10.970;2022-10-15T14:44:02;4.63;;;3.00;;
39822;SDS011;25499;53.958;10.970;2022-10-15T14:46:32;4.68;;;3.10;;
39822;SDS011;25499;53.958;10.970;2022-10-15T14:49:11;5.80;;;2.80;;
39822;SDS011;25499;53.958;10.970;2022-10-15T14:52:00;3.97;;;2.70;;
39822;SDS011;25499;53.958;10.970;2022-10-15T14:54:37;3.75;;;3.33;;
39822;SDS011;25499;53.958;10.970;2022-10-15T14:57:11;5.85;;;3.72;;
39822;SDS011;25499;53.958;10.970;2022-10-15T14:59:42;5.00;;;3.00;;
39822;SDS011;25499;53.958;10.970;2022-10-15T15:02:09;6.18;;;3.30;;
39822;SDS011;25499;53.958;10.970;2022-10-15T15:04:40;3.83;;;3.33;;
39822;SDS011;25499;53.958;10.970;2022-10-15T15:07:14;4.75;;;3.40;;
39822;SDS011;25499;53.958;10.970;2022-10-15T15:09:41;5.03;;;3.85;;
39822;SDS011;25499;53.958;10.970;2022-10-15T15:12:13;4.75;;;3.60;;
39822;SDS011;25499;53.958;10.970;2022-10-15T15:14:41;4.95;;;3.47;;
39822;SDS011;25499;53.958;10.970;2022-10-15T15:17:08;7.90;;;3.67;;
39822;SDS011;25499;53.958;10.970;2022-10-15T15:19:49;4.35;;;3.30;;
39822;SDS011;25499;53.958;10.970;2022-10-15T15:24:52;5.22;;;3.25;;
39822;SDS011;25499;53.958;10.970;2022-10-15T15:27:24;6.13;;;3.78;;
39822;SDS011;25499;53.958;10.970;2022-10-15T15:29:52;4.72;;;3.92;;
39822;SDS011;25499;53.958;10.970;2022-10-15T15:32:18;4.68;;;3.80;;
39822;SDS011;25499;53.958;10.970;2022-10-15T15:34:45;5.53;;;3.70;;
39822;SDS011;25499;53.958;10.970;2022-10-15T15:37:18;5.78;;;3.30;;
39822;SDS011;25499;53.958;10.970;2022-10-15T15:39:48;3.70;;;3.08;;
39822;SDS011;25499;53.958;10.970;2022-10-15T15:42:18;4.43;;;3.33;;
39822;SDS011;25499;53.958;10.970;2022-10-15T15:44:48;4.80;;;3.13;;
39822;SDS011;25499;53.958;10.970;2022-10-15T15:47:14;5.07;;;3.53;;
39822;SDS011;25499;53.958;10.970;2022-10-15T15:49:39;5.53;;;3.78;;
39822;SDS011;25499;53.958;10.970;2022-10-15T15:52:06;5.50;;;3.80;;
39822;SDS011;25499;53.958;10.970;2022-10-15T15:54:34;4.90;;;3.60;;
39822;SDS011;25499;53.958;10.970;2022-10-15T15:56:59;5.55;;;4.00;;
39822;SDS011;25499;53.958;10.970;2022-10-15T15:59:25;5.63;;;4.07;;
39822;SDS011;25499;53.958;10.970;2022-10-15T16:01:50;4.38;;;3.90;;
39822;SDS011;25499;53.958;10.970;2022-10-15T16:04:16;4.95;;;4.00;;
39822;SDS011;25499;53.958;10.970;2022-10-15T16:06:41;4.40;;;4.00;;
39822;SDS011;25499;53.958;10.970;2022-10-15T16:09:07;6.13;;;5.10;;
39822;SDS011;25499;53.958;10.970;2022-10-15T16:11:38;6.22;;;5.00;;
39822;SDS011;25499;53.958;10.970;2022-10-15T16:14:03;7.18;;;5.28;;
39822;SDS011;25499;53.958;10.970;2022-10-15T16:16:29;7.63;;;6.07;;
39822;SDS011;25499;53.958;10.970;2022-10-15T16:18:55;7.43;;;6.32;;
39822;SDS011;25499;53.958;10.970;2022-10-15T16:21:21;8.90;;;6.82;;
39822;SDS011;25499;53.958;10.970;2022-10-15T16:26:31;10.63;;;7.90;;
39822;SDS011;25499;53.958;10.970;2022-10-15T16:28:56;9.40;;;8.43;;
39822;SDS011;25499;53.958;10.970;2022-10-15T16:31:23;9.15;;;7.82;;
39822;SDS011;25499;53.958;10.970;2022-10-15T16:33:49;11.90;;;8.43;;
39822;SDS011;25499;53.958;10.970;2022-10-15T16:36:16;9.52;;;8.45;;
39822;SDS011;25499;53.958;10.970;2022-10-15T16:38:42;10.30;;;8.45;;
39822;SDS011;25499;53.958;10.970;2022-10-15T16:41:09;10.48;;;8.45;;
39822;SDS011;25499;53.958;10.970;2022-10-15T16:43:35;9.95;;;8.45;;
39822;SDS011;25499;53.958;10.970;2022-10-15T16:46:01;10.00;;;8.38;;
39822;SDS011;25499;53.958;10.970;2022-10-15T16:48:27;10.20;;;9.05;;
39822;SDS011;25499;53.958;10.970;2022-10-15T16:53:31;11.15;;;9.48;;
39822;SDS011;25499;53.958;10.970;2022-10-15T16:55:58;10.32;;;9.07;;
39822;SDS011;25499;53.958;10.970;2022-10-15T16:58:25;11.32;;;9.05;;
39822;SDS011;25499;53.958;10.970;2022-10-15T17:00:50;11.35;;;9.35;;
39822;SDS011;25499;53.958;10.970;2022-10-15T17:03:16;10.93;;;9.27;;
39822;SDS011;25499;53.958;10.970;2022-10-15T17:05:41;10.43;;;9.32;;
39822;SDS011;25499;53.958;10.970;2022-10-15T17:08:06;12.40;;;9.65;;
39822;SDS011;25499;53.958;10.970;2022-10-15T17:10:32;13.57;;;10.07;;
39822;SDS011;25499;53.958;10.970;2022-10-15T17:12:57;12.65;;;9.70;;
39822;SDS011;25499;53.958;10.970;2022-10-15T17:15:23;11.10;;;10.00;;
39822;SDS011;25499;53.958;10.970;2022-10-15T17:17:49;12.32;;;10.95;;
39822;SDS011;25499;53.958;10.970;2022-10-15T17:20:14;15.13;;;11.05;;
39822;SDS011;25499;53.958;10.970;2022-10-15T17:22:40;16.10;;;11.38;;
39822;SDS011;25499;53.958;10.970;2022-10-15T17:25:05;13.25;;;11.80;;
39822;SDS011;25499;53.958;10.970;2022-10-15T17:27:31;15.00;;;12.18;;
39822;SDS011;25499;53.958;10.970;2022-10-15T17:29:58;16.45;;;12.65;;
39822;SDS011;25499;53.958;10.970;2022-10-15T17:32:23;17.67;;;13.05;;
39822;SDS011;25499;53.958;10.970;2022-10-15T17:34:49;14.98;;;13.00;;
39822;SDS011;25499;53.958;10.970;2022-10-15T17:37:14;16.27;;;13.27;;
39822;SDS011;25499;53.958;10.970;2022-10-15T17:39:40;16.50;;;13.63;;
39822;SDS011;25499;53.958;10.970;2022-10-15T17:42:05;18.38;;;14.15;;
39822;SDS011;25499;53.958;10.970;2022-10-15T17:44:31;16.55;;;13.75;;
39822;SDS011;25499;53.958;10.970;2022-10-15T17:46:56;16.30;;;14.20;;
39822;SDS011;25499;53.958;10.970;2022-10-15T17:49:22;17.13;;;14.10;;
39822;SDS011;25499;53.958;10.970;2022-10-15T17:51:47;16.20;;;14.27;;
39822;SDS011;25499;53.958;10.970;2022-10-15T17:54:13;18.48;;;15.13;;
39822;SDS011;25499;53.958;10.970;2022-10-15T17:56:38;20.13;;;14.82;;
39822;SDS011;25499;53.958;10.970;2022-10-15T17:59:05;17.75;;;15.20;;
39822;SDS011;25499;53.958;10.970;2022-10-15T18:01:33;17.58;;;15.25;;
39822;SDS011;25499;53.958;10.970;2022-10-15T18:04:00;17.75;;;14.48;;
39822;SDS011;25499;53.958;10.970;2022-10-15T18:06:26;16.70;;;14.90;;
39822;SDS011;25499;53.958;10.970;2022-10-15T18:08:52;17.85;;;15.27;;
39822;SDS011;25499;53.958;10.970;2022-10-15T18:11:20;20.02;;;15.20;;
39822;SDS011;25499;53.958;10.970;2022-10-15T18:13:50;17.65;;;14.52;;
39822;SDS011;25499;53.958;10.970;2022-10-15T18:16:15;17.27;;;14.55;;
39822;SDS011;25499;53.958;10.970;2022-10-15T18:18:42;19.10;;;14.90;;
39822;SDS011;25499;53.958;10.970;2022-10-15T18:21:08;19.08;;;14.88;;
39822;SDS011;25499;53.958;10.970;2022-10-15T18:23:36;17.40;;;14.93;;
39822;SDS011;25499;53.958;10.970;2022-10-15T18:26:06;20.63;;;14.63;;
39822;SDS011;25499;53.958;10.970;2022-10-15T18:28:34;15.90;;;14.15;;
39822;SDS011;25499;53.958;10.970;2022-10-15T18:31:03;16.45;;;13.98;;
39822;SDS011;25499;53.958;10.970;2022-10-15T18:33:32;16.88;;;13.65;;
39822;SDS011;25499;53.958;10.970;2022-10-15T18:36:09;17.63;;;14.18;;
39822;SDS011;25499;53.958;10.970;2022-10-15T18:38:43;15.65;;;13.60;;
39822;SDS011;25499;53.958;10.970;2022-10-15T18:44:03;17.75;;;14.82;;
39822;SDS011;25499;53.958;10.970;2022-10-15T18:46:31;19.88;;;15.00;;
39822;SDS011;25499;53.958;10.970;2022-10-15T18:48:57;18.73;;;15.45;;
39822;SDS011;25499;53.958;10.970;2022-10-15T18:51:25;18.70;;;14.88;;
39822;SDS011;25499;53.958;10.970;2022-10-15T18:53:51;19.15;;;15.55;;
39822;SDS011;25499;53.958;10.970;2022-10-15T18:56:17;16.38;;;14.50;;
39822;SDS011;25499;53.958;10.970;2022-10-15T18:58:42;16.55;;;13.80;;
39822;SDS011;25499;53.958;10.970;2022-10-15T19:01:09;17.27;;;14.00;;
39822;SDS011;25499;53.958;10.970;2022-10-15T19:03:35;14.15;;;12.25;;
39822;SDS011;25499;53.958;10.970;2022-10-15T19:06:00;12.52;;;10.18;;
39822;SDS011;25499;53.958;10.970;2022-10-15T19:08:26;10.68;;;9.45;;
39822;SDS011;25499;53.958;10.970;2022-10-15T19:10:52;10.35;;;8.48;;
39822;SDS011;25499;53.958;10.970;2022-10-15T19:13:18;8.90;;;8.00;;
39822;SDS011;25499;53.958;10.970;2022-10-15T19:15:43;11.80;;;8.50;;
39822;SDS011;25499;53.958;10.970;2022-10-15T19:18:09;8.85;;;7.60;;
39822;SDS011;25499;53.958;10.970;2022-10-15T19:20:38;11.27;;;8.15;;
39822;SDS011;25499;53.958;10.970;2022-10-15T19:23:05;9.20;;;7.50;;
39822;SDS011;25499;53.958;10.970;2022-10-15T19:25:30;8.88;;;7.00;;
39822;SDS011;25499;53.958;10.970;2022-10-15T19:27:56;8.25;;;7.15;;
39822;SDS011;25499;53.958;10.970;2022-10-15T19:30:21;7.70;;;6.90;;
39822;SDS011;25499;53.958;10.970;2022-10-15T19:32:46;8.00;;;6.65;;
39822;SDS011;25499;53.958;10.970;2022-10-15T19:35:12;10.77;;;6.25;;
39822;SDS011;25499;53.958;10.970;2022-10-15T19:37:37;7.32;;;5.82;;
39822;SDS011;25499;53.958;10.970;2022-10-15T19:40:03;5.70;;;5.15;;
39822;SDS011;25499;53.958;10.970;2022-10-15T19:42:29;6.45;;;5.10;;
39822;SDS011;25499;53.958;10.970;2022-10-15T19:44:54;5.20;;;4.70;;
39822;SDS011;25499;53.958;10.970;2022-10-15T19:47:20;4.50;;;3.95;;
39822;SDS011;25499;53.958;10.970;2022-10-15T19:49:47;4.15;;;3.70;;
39822;SDS011;25499;53.958;10.970;2022-10-15T19:52:13;5.10;;;3.83;;
39822;SDS011;25499;53.958;10.970;2022-10-15T19:54:39;4.20;;;3.75;;
39822;SDS011;25499;53.958;10.970;2022-10-15T19:57:04;5.00;;;3.90;;
39822;SDS011;25499;53.958;10.970;2022-10-15T19:59:30;4.13;;;3.38;;
